Time;durP1;ratioP1;P1;durP2;ratioP2;P2;SDS_P1;SDS_P2;PMS_P1;PMS_P2;Temp;Humidity;BMP_temperature;BMP_pressure;BME280_temperature;BME280_humidity;BME280_pressure;Samples;Min_cycle;Max_cycle;Signal;HPM_P1;HPM_P2
2022/12/19 00:02:15;;;;;;;14.33;8.40;;;;;;;;;;5064076;28;20457;-79
2022/12/19 00:04:42;;;;;;;21.50;9.47;;;;;;;;;;5064208;28;20463;-79
2022/12/19 00:07:10;;;;;;;12.27;6.43;;;;;;;;;;5063646;28;20500;-80
2022/12/19 00:09:38;;;;;;;15.17;6.53;;;;;;;;;;5062743;28;20838;-80
2022/12/19 00:12:05;;;;;;;11.95;6.90;;;;;;;;;;5062306;28;20476;-80
2022/12/19 00:14:34;;;;;;;14.40;8.50;;;;;;;;;;5062885;28;20218;-80
2022/12/19 00:17:02;;;;;;;13.18;7.90;;;;;;;;;;5062944;28;20560;-80
2022/12/19 00:19:30;;;;;;;14.83;6.33;;;;;;;;;;5062711;28;20578;-79
2022/12/19 00:21:57;;;;;;;14.23;6.07;;;;;;;;;;5062617;28;20976;-79
2022/12/19 00:24:25;;;;;;;18.87;8.60;;;;;;;;;;5062033;28;20468;-79
2022/12/19 00:26:52;;;;;;;15.53;6.47;;;;;;;;;;5063199;28;20499;-79
2022/12/19 00:29:20;;;;;;;11.20;6.20;;;;;;;;;;5061470;28;20452;-80
2022/12/19 00:31:49;;;;;;;24.60;10.83;;;;;;;;;;5062125;28;20497;-79
2022/12/19 00:34:17;;;;;;;14.00;7.20;;;;;;;;;;5062328;28;20450;-79
2022/12/19 00:36:44;;;;;;;11.35;6.10;;;;;;;;;;5062302;28;20733;-80
2022/12/19 00:39:12;;;;;;;13.43;8.37;;;;;;;;;;5061960;28;20287;-79
2022/12/19 00:41:40;;;;;;;21.33;8.00;;;;;;;;;;5061653;28;20465;-79
2022/12/19 00:44:10;;;;;;;15.40;6.13;;;;;;;;;;5061561;28;20722;-79
2022/12/19 00:46:37;;;;;;;19.38;9.30;;;;;;;;;;5062834;28;20469;-80
2022/12/19 00:49:06;;;;;;;11.60;4.13;;;;;;;;;;5062231;28;20227;-80
2022/12/19 00:51:35;;;;;;;14.10;6.73;;;;;;;;;;5062680;28;20485;-79
2022/12/19 00:54:03;;;;;;;19.83;9.30;;;;;;;;;;5062262;28;20458;-79
2022/12/19 00:56:31;;;;;;;12.53;6.63;;;;;;;;;;5060462;28;20470;-80
2022/12/19 00:58:59;;;;;;;12.10;5.57;;;;;;;;;;5062424;28;20467;-79
2022/12/19 01:01:28;;;;;;;14.53;8.73;;;;;;;;;;5061482;28;20545;-79
2022/12/19 01:03:56;;;;;;;15.40;10.47;;;;;;;;;;5061643;28;20696;-79
2022/12/19 01:06:25;;;;;;;14.03;6.90;;;;;;;;;;5063038;28;20461;-79
2022/12/19 01:08:53;;;;;;;14.17;5.73;;;;;;;;;;5061379;28;20496;-80
2022/12/19 01:12:44;;;;;;;11.85;6.97;;;;;;;;;;5062033;28;20781;-79
2022/12/19 01:14:08;;;;;;;15.37;6.07;;;;;;;;;;5062113;28;20559;-80
2022/12/19 01:16:35;;;;;;;14.37;8.77;;;;;;;;;;5061678;28;20453;-80
2022/12/19 01:19:03;;;;;;;17.13;8.63;;;;;;;;;;5062265;28;20709;-79
2022/12/19 01:21:32;;;;;;;7.35;5.30;;;;;;;;;;5060530;28;20760;-79
2022/12/19 01:24:00;;;;;;;23.58;6.90;;;;;;;;;;5061377;28;20206;-79
2022/12/19 01:26:27;;;;;;;11.55;6.22;;;;;;;;;;5061997;28;20207;-80
2022/12/19 01:28:55;;;;;;;13.03;7.90;;;;;;;;;;5061228;28;20227;-79
2022/12/19 01:31:23;;;;;;;14.63;9.77;;;;;;;;;;5064186;28;20476;-80
2022/12/19 01:33:50;;;;;;;14.13;8.20;;;;;;;;;;5060396;28;20453;-79
2022/12/19 01:36:18;;;;;;;12.93;8.17;;;;;;;;;;5060481;28;20210;-79
2022/12/19 01:38:47;;;;;;;13.40;7.90;;;;;;;;;;5060362;28;20458;-80
2022/12/19 01:41:14;;;;;;;12.40;6.13;;;;;;;;;;5060981;28;20458;-79
2022/12/19 01:43:56;;;;;;;13.57;7.00;;;;;;;;;;5061885;28;20464;-80
2022/12/19 01:46:26;;;;;;;16.83;8.30;;;;;;;;;;5059485;28;20789;-80
2022/12/19 01:48:54;;;;;;;11.53;6.57;;;;;;;;;;5062022;28;20485;-79
2022/12/19 01:51:23;;;;;;;12.40;6.60;;;;;;;;;;5060084;28;20465;-79
2022/12/19 01:53:53;;;;;;;13.47;7.23;;;;;;;;;;5060542;28;20453;-80
2022/12/19 01:56:24;;;;;;;9.53;5.57;;;;;;;;;;5061130;28;20457;-79
2022/12/19 01:58:53;;;;;;;13.73;8.50;;;;;;;;;;5059294;28;20751;-79
2022/12/19 02:01:20;;;;;;;8.97;5.80;;;;;;;;;;5061198;28;20523;-79
2022/12/19 02:03:48;;;;;;;15.40;8.03;;;;;;;;;;5060365;28;20445;-79
2022/12/19 02:06:18;;;;;;;11.20;5.10;;;;;;;;;;5060908;28;20465;-79
2022/12/19 02:08:47;;;;;;;24.55;9.38;;;;;;;;;;5061773;28;20520;-79
2022/12/19 02:11:16;;;;;;;15.73;6.75;;;;;;;;;;5059484;28;20207;-80
2022/12/19 02:13:43;;;;;;;13.40;6.73;;;;;;;;;;5061161;28;20217;-79
2022/12/19 02:16:15;;;;;;;17.83;7.30;;;;;;;;;;5060820;28;20464;-79
2022/12/19 02:18:48;;;;;;;14.53;7.50;;;;;;;;;;5060200;28;20465;-79
2022/12/19 02:21:24;;;;;;;14.97;7.57;;;;;;;;;;5061436;28;20484;-78
2022/12/19 02:24:13;;;;;;;11.40;6.90;;;;;;;;;;5060795;28;20460;-79
2022/12/19 02:26:58;;;;;;;12.80;5.87;;;;;;;;;;5061045;28;20460;-79
2022/12/19 02:29:40;;;;;;;13.30;8.57;;;;;;;;;;5060310;28;20584;-80
2022/12/19 02:32:11;;;;;;;12.77;6.43;;;;;;;;;;5061309;28;20469;-80
2022/12/19 02:34:43;;;;;;;13.90;6.93;;;;;;;;;;5062526;28;20463;-80
2022/12/19 02:37:12;;;;;;;20.70;7.40;;;;;;;;;;5062470;28;20765;-80
2022/12/19 02:39:43;;;;;;;15.53;7.60;;;;;;;;;;5061367;28;20461;-80
2022/12/19 02:42:12;;;;;;;13.07;8.70;;;;;;;;;;5061678;28;20449;-80
2022/12/19 02:44:41;;;;;;;12.77;7.20;;;;;;;;;;5062150;28;20461;-80
2022/12/19 02:47:14;;;;;;;8.63;5.17;;;;;;;;;;5059932;28;20476;-80
2022/12/19 02:49:41;;;;;;;12.00;8.10;;;;;;;;;;5060389;28;20500;-80
2022/12/19 02:52:10;;;;;;;15.80;7.78;;;;;;;;;;5060656;28;20217;-80
2022/12/19 02:54:38;;;;;;;12.40;7.30;;;;;;;;;;5061205;28;20207;-79
2022/12/19 02:57:10;;;;;;;20.33;7.20;;;;;;;;;;5060901;28;20523;-79
2022/12/19 02:59:46;;;;;;;14.67;8.07;;;;;;;;;;5060858;28;20487;-79
2022/12/19 03:02:21;;;;;;;13.43;7.30;;;;;;;;;;5061283;28;20441;-80
2022/12/19 03:04:51;;;;;;;18.17;8.73;;;;;;;;;;5059565;28;20487;-80
2022/12/19 03:07:28;;;;;;;10.03;6.97;;;;;;;;;;5060036;28;20488;-80
2022/12/19 03:09:58;;;;;;;13.50;7.20;;;;;;;;;;5059590;28;20485;-80
2022/12/19 03:12:29;;;;;;;13.37;8.13;;;;;;;;;;5060977;28;20479;-80
2022/12/19 03:14:58;;;;;;;10.60;7.00;;;;;;;;;;5061316;28;20470;-79
2022/12/19 03:17:27;;;;;;;17.60;7.50;;;;;;;;;;5059492;28;20493;-80
2022/12/19 03:19:55;;;;;;;14.23;8.30;;;;;;;;;;5062975;28;20457;-81
2022/12/19 03:22:23;;;;;;;17.03;8.13;;;;;;;;;;5063338;28;20458;-80
2022/12/19 03:24:50;;;;;;;15.43;7.57;;;;;;;;;;5064932;28;20765;-80
2022/12/19 03:27:22;;;;;;;15.13;7.67;;;;;;;;;;5063604;28;20457;-80
2022/12/19 03:29:53;;;;;;;10.43;7.60;;;;;;;;;;5064063;28;20501;-79
2022/12/19 03:32:21;;;;;;;13.23;10.23;;;;;;;;;;5063448;28;20453;-80
2022/12/19 03:34:52;;;;;;;10.03;7.07;;;;;;;;;;5063705;28;20752;-80
2022/12/19 03:37:21;;;;;;;12.07;8.23;;;;;;;;;;5063377;28;20454;-80
2022/12/19 03:39:50;;;;;;;11.43;7.20;;;;;;;;;;5063193;28;20469;-80
2022/12/19 03:45:06;;;;;;;11.50;7.80;;;;;;;;;;5063021;28;20581;-81
2022/12/19 03:47:35;;;;;;;13.83;6.60;;;;;;;;;;5065431;28;20461;-79
2022/12/19 03:50:05;;;;;;;10.37;6.43;;;;;;;;;;5065148;28;20551;-79
2022/12/19 03:52:35;;;;;;;9.10;6.10;;;;;;;;;;5064500;28;20450;-80
2022/12/19 03:55:07;;;;;;;14.47;8.00;;;;;;;;;;5057300;28;20496;-79
2022/12/19 03:57:37;;;;;;;11.60;6.47;;;;;;;;;;5064170;28;20865;-80
2022/12/19 04:00:06;;;;;;;21.43;8.03;;;;;;;;;;5063105;28;20233;-79
2022/12/19 04:02:35;;;;;;;11.67;6.70;;;;;;;;;;5064300;28;20469;-79
2022/12/19 04:05:06;;;;;;;14.63;6.90;;;;;;;;;;5063545;28;20473;-80
2022/12/19 04:07:34;;;;;;;13.93;7.83;;;;;;;;;;5065622;28;20449;-79
2022/12/19 04:10:04;;;;;;;17.73;8.27;;;;;;;;;;5063351;28;20492;-80
2022/12/19 04:12:34;;;;;;;14.27;7.47;;;;;;;;;;5066247;28;20780;-80
2022/12/19 04:15:02;;;;;;;11.07;5.00;;;;;;;;;;5065356;28;20579;-80
2022/12/19 04:17:35;;;;;;;10.60;6.93;;;;;;;;;;5063155;28;20461;-80
2022/12/19 04:20:04;;;;;;;10.50;5.80;;;;;;;;;;5064967;28;20866;-79
2022/12/19 04:22:36;;;;;;;14.17;7.13;;;;;;;;;;5063843;28;20461;-79
2022/12/19 04:25:04;;;;;;;13.70;7.07;;;;;;;;;;5063677;28;20552;-79
2022/12/19 04:27:32;;;;;;;12.27;7.13;;;;;;;;;;5063857;28;20464;-80
2022/12/19 04:30:01;;;;;;;11.90;7.07;;;;;;;;;;5062477;28;20481;-79
2022/12/19 04:32:30;;;;;;;13.93;6.97;;;;;;;;;;5063208;28;20468;-79
2022/12/19 04:34:57;;;;;;;12.73;7.00;;;;;;;;;;5062057;28;20473;-79
2022/12/19 04:37:25;;;;;;;11.47;6.90;;;;;;;;;;5063203;28;20587;-79
2022/12/19 04:39:54;;;;;;;12.10;7.27;;;;;;;;;;5062559;28;20560;-80
2022/12/19 04:42:21;;;;;;;10.23;6.17;;;;;;;;;;5065178;28;20465;-80
2022/12/19 04:44:49;;;;;;;12.77;8.00;;;;;;;;;;5061479;28;20469;-79
2022/12/19 04:47:17;;;;;;;18.67;8.87;;;;;;;;;;5062999;28;20449;-80
2022/12/19 04:49:44;;;;;;;10.83;6.60;;;;;;;;;;5062490;28;20558;-80
2022/12/19 04:52:12;;;;;;;18.30;7.37;;;;;;;;;;5062936;28;20464;-80
2022/12/19 04:54:39;;;;;;;13.50;8.20;;;;;;;;;;5063188;28;20466;-80
2022/12/19 04:57:08;;;;;;;12.03;6.97;;;;;;;;;;5061422;28;20468;-80
2022/12/19 04:59:36;;;;;;;11.13;6.87;;;;;;;;;;5063353;28;20514;-80
2022/12/19 05:02:03;;;;;;;8.70;5.70;;;;;;;;;;5061263;28;20457;-80
2022/12/19 05:04:31;;;;;;;9.60;5.77;;;;;;;;;;5062827;28;20469;-80
2022/12/19 05:06:58;;;;;;;20.23;6.27;;;;;;;;;;5060757;28;20449;-80
2022/12/19 05:09:26;;;;;;;10.90;5.60;;;;;;;;;;5061651;28;20497;-77
2022/12/19 05:11:54;;;;;;;9.70;5.60;;;;;;;;;;5058659;28;20474;-76
2022/12/19 05:14:23;;;;;;;13.90;7.43;;;;;;;;;;5059852;28;20749;-77
2022/12/19 05:16:50;;;;;;;11.87;7.73;;;;;;;;;;5058184;28;20449;-78
2022/12/19 05:19:18;;;;;;;11.90;6.60;;;;;;;;;;5061169;28;20476;-80
2022/12/19 05:21:45;;;;;;;15.87;7.93;;;;;;;;;;5061318;28;20475;-79
2022/12/19 05:24:13;;;;;;;8.37;5.07;;;;;;;;;;5062572;28;20449;-80
2022/12/19 05:26:40;;;;;;;17.00;9.60;;;;;;;;;;5064602;28;20473;-79
2022/12/19 05:29:08;;;;;;;10.90;5.40;;;;;;;;;;5061812;28;20503;-79
2022/12/19 05:31:37;;;;;;;13.60;5.53;;;;;;;;;;5064402;28;20454;-79
2022/12/19 05:34:05;;;;;;;13.70;8.23;;;;;;;;;;5061859;28;20462;-79
2022/12/19 05:36:32;;;;;;;9.93;6.30;;;;;;;;;;5062065;28;20787;-79
2022/12/19 05:39:00;;;;;;;11.80;6.93;;;;;;;;;;5060888;28;20472;-79
2022/12/19 05:41:27;;;;;;;16.73;7.40;;;;;;;;;;5063291;28;20463;-79
2022/12/19 05:43:56;;;;;;;13.37;6.73;;;;;;;;;;5062450;28;20457;-79
2022/12/19 05:46:24;;;;;;;13.50;7.87;;;;;;;;;;5061365;28;20463;-79
2022/12/19 05:48:53;;;;;;;15.57;8.27;;;;;;;;;;5060455;28;20488;-80
2022/12/19 05:51:21;;;;;;;11.77;5.03;;;;;;;;;;5060168;28;20983;-79
2022/12/19 05:53:49;;;;;;;7.90;5.80;;;;;;;;;;5062840;28;20468;-79
2022/12/19 05:56:17;;;;;;;13.00;6.57;;;;;;;;;;5061551;28;20437;-79
2022/12/19 05:58:45;;;;;;;7.27;5.13;;;;;;;;;;5061296;28;20465;-79
2022/12/19 06:01:13;;;;;;;10.63;7.10;;;;;;;;;;5062014;28;20740;-80
2022/12/19 06:03:41;;;;;;;15.83;7.70;;;;;;;;;;5060595;28;20464;-80
2022/12/19 06:06:11;;;;;;;8.80;5.90;;;;;;;;;;5061300;28;20515;-81
2022/12/19 06:08:39;;;;;;;14.40;6.80;;;;;;;;;;5062116;28;20464;-80
2022/12/19 06:11:08;;;;;;;12.97;5.43;;;;;;;;;;5060954;28;20467;-80
2022/12/19 06:13:36;;;;;;;10.80;7.03;;;;;;;;;;5061473;28;20445;-80
2022/12/19 06:16:05;;;;;;;11.07;6.80;;;;;;;;;;5060167;28;20487;-79
2022/12/19 06:18:33;;;;;;;14.37;7.47;;;;;;;;;;5061907;28;20465;-80
2022/12/19 06:21:04;;;;;;;11.70;7.00;;;;;;;;;;5061555;28;20465;-80
2022/12/19 06:23:34;;;;;;;13.70;7.40;;;;;;;;;;5061659;28;20441;-80
2022/12/19 06:26:03;;;;;;;11.57;7.13;;;;;;;;;;5062435;28;20468;-79
2022/12/19 06:28:31;;;;;;;16.30;8.10;;;;;;;;;;5059775;28;20477;-80
2022/12/19 06:30:59;;;;;;;11.87;6.53;;;;;;;;;;5061553;28;20489;-80
2022/12/19 06:33:26;;;;;;;13.57;6.63;;;;;;;;;;5059331;28;20453;-80
2022/12/19 06:35:58;;;;;;;13.63;7.00;;;;;;;;;;5060732;28;20461;-79
2022/12/19 06:38:26;;;;;;;9.87;6.47;;;;;;;;;;5058785;28;20465;-79
2022/12/19 06:43:40;;;;;;;13.43;6.60;;;;;;;;;;5061040;28;20563;-80
2022/12/19 06:46:10;;;;;;;9.87;5.97;;;;;;;;;;5060703;28;20464;-80
2022/12/19 06:48:40;;;;;;;15.83;8.00;;;;;;;;;;5060983;28;20454;-79
2022/12/19 06:51:13;;;;;;;10.97;7.60;;;;;;;;;;5059756;28;20485;-80
2022/12/19 06:53:44;;;;;;;8.37;5.30;;;;;;;;;;5061336;28;20909;-80
2022/12/19 06:56:14;;;;;;;13.93;8.63;;;;;;;;;;5064879;28;20461;-79
2022/12/19 06:58:41;;;;;;;8.60;5.63;;;;;;;;;;5078626;28;20475;-79
2022/12/19 07:01:16;;;;;;;13.47;7.93;;;;;;;;;;5081737;28;20968;-79
2022/12/19 07:03:44;;;;;;;17.83;6.97;;;;;;;;;;5075296;28;20464;-79
2022/12/19 07:06:11;;;;;;;13.30;6.70;;;;;;;;;;5073287;28;20475;-79
2022/12/19 07:08:39;;;;;;;11.90;6.23;;;;;;;;;;5079362;28;20800;-79
2022/12/19 07:11:10;;;;;;;11.70;7.30;;;;;;;;;;5083952;28;20484;-79
2022/12/19 07:13:40;;;;;;;8.53;6.00;;;;;;;;;;5083756;28;20812;-77
2022/12/19 07:16:08;;;;;;;11.30;7.30;;;;;;;;;;5079293;28;20456;-78
2022/12/19 07:18:38;;;;;;;12.10;6.67;;;;;;;;;;5078599;28;20732;-78
2022/12/19 07:21:07;;;;;;;13.50;7.50;;;;;;;;;;5078569;28;20457;-77
2022/12/19 07:23:36;;;;;;;13.80;7.60;;;;;;;;;;5084074;28;20444;-80
2022/12/19 07:26:03;;;;;;;10.63;6.40;;;;;;;;;;5083501;28;20448;-79
2022/12/19 07:28:31;;;;;;;10.43;6.87;;;;;;;;;;5069617;28;20437;-80
2022/12/19 07:31:00;;;;;;;10.90;6.50;;;;;;;;;;5067708;28;20572;-80
2022/12/19 07:33:28;;;;;;;13.87;8.20;;;;;;;;;;5087910;28;20448;-79
2022/12/19 07:35:56;;;;;;;12.57;7.10;;;;;;;;;;5081972;28;20465;-81
2022/12/19 07:38:24;;;;;;;10.80;7.07;;;;;;;;;;5091555;28;20452;-80
2022/12/19 07:40:53;;;;;;;10.23;6.50;;;;;;;;;;5081797;28;20455;-80
2022/12/19 07:43:23;;;;;;;15.37;8.70;;;;;;;;;;5067559;28;20501;-78
2022/12/19 07:45:54;;;;;;;14.00;8.03;;;;;;;;;;5088141;28;20945;-80
2022/12/19 07:48:24;;;;;;;19.20;8.13;;;;;;;;;;5088194;28;20483;-79
2022/12/19 07:50:52;;;;;;;11.40;7.63;;;;;;;;;;5079659;28;20489;-79
2022/12/19 07:53:29;;;;;;;11.37;5.80;;;;;;;;;;5079398;28;20483;-80
2022/12/19 07:55:56;;;;;;;12.73;7.47;;;;;;;;;;5072324;28;20480;-78
2022/12/19 07:58:24;;;;;;;14.93;9.70;;;;;;;;;;5076639;28;20460;-78
2022/12/19 08:00:55;;;;;;;14.23;8.63;;;;;;;;;;5065228;28;20441;-78
2022/12/19 08:03:25;;;;;;;8.77;6.70;;;;;;;;;;5073867;28;20457;-79
2022/12/19 08:05:52;;;;;;;11.70;7.10;;;;;;;;;;5080594;28;20504;-78
2022/12/19 08:08:20;;;;;;;14.27;8.10;;;;;;;;;;5066813;28;20530;-79
2022/12/19 08:10:48;;;;;;;12.27;6.57;;;;;;;;;;5067010;28;20870;-78
2022/12/19 08:13:16;;;;;;;15.70;8.40;;;;;;;;;;5077105;28;20473;-79
2022/12/19 08:15:44;;;;;;;12.47;7.30;;;;;;;;;;5073042;28;20469;-80
2022/12/19 08:18:12;;;;;;;11.97;8.30;;;;;;;;;;5063896;28;20461;-78
2022/12/19 08:20:45;;;;;;;14.67;6.50;;;;;;;;;;5073021;28;20991;-80
2022/12/19 08:23:17;;;;;;;14.97;7.77;;;;;;;;;;5079448;28;20453;-79
2022/12/19 08:25:48;;;;;;;9.60;5.63;;;;;;;;;;5069357;28;20457;-78
2022/12/19 08:28:17;;;;;;;19.77;7.90;;;;;;;;;;5066571;28;20545;-78
2022/12/19 08:30:45;;;;;;;21.53;7.47;;;;;;;;;;5069351;28;20492;-77
2022/12/19 08:33:14;;;;;;;17.50;9.83;;;;;;;;;;5064410;28;20523;-77
2022/12/19 08:35:43;;;;;;;14.97;8.33;;;;;;;;;;5062467;28;20564;-77
2022/12/19 08:38:15;;;;;;;11.83;8.00;;;;;;;;;;5065074;28;20470;-78
2022/12/19 08:40:43;;;;;;;12.03;8.43;;;;;;;;;;5075315;28;20540;-78
2022/12/19 08:43:11;;;;;;;12.83;8.57;;;;;;;;;;5078957;28;20475;-78
2022/12/19 08:45:40;;;;;;;14.97;8.40;;;;;;;;;;5074243;28;20461;-78
2022/12/19 08:48:07;;;;;;;15.07;8.80;;;;;;;;;;5077651;28;21144;-79
2022/12/19 08:50:35;;;;;;;15.07;6.77;;;;;;;;;;5074594;28;20485;-78
2022/12/19 08:53:07;;;;;;;15.07;8.50;;;;;;;;;;5080873;28;20468;-77
2022/12/19 08:55:36;;;;;;;12.60;9.00;;;;;;;;;;5085863;28;20472;-78
2022/12/19 08:58:04;;;;;;;18.93;9.63;;;;;;;;;;5069443;28;20807;-79
2022/12/19 09:00:32;;;;;;;14.57;8.40;;;;;;;;;;5072782;28;20461;-77
2022/12/19 09:03:11;;;;;;;26.63;8.93;;;;;;;;;;5065274;28;20456;-79
2022/12/19 09:05:39;;;;;;;13.20;7.07;;;;;;;;;;5071081;28;20466;-76
2022/12/19 09:08:08;;;;;;;14.47;9.17;;;;;;;;;;5071685;28;20488;-78
2022/12/19 09:10:37;;;;;;;14.40;7.77;;;;;;;;;;5079523;28;20484;-77
2022/12/19 09:13:05;;;;;;;21.13;10.57;;;;;;;;;;5061182;28;20864;-79
2022/12/19 09:15:34;;;;;;;11.63;6.43;;;;;;;;;;5060706;28;20892;-77
2022/12/19 09:18:05;;;;;;;17.57;8.37;;;;;;;;;;5079474;28;20493;-77
2022/12/19 09:20:35;;;;;;;9.80;7.07;;;;;;;;;;5064691;28;20484;-78
2022/12/19 09:23:03;;;;;;;18.00;10.60;;;;;;;;;;5071553;28;20476;-78
2022/12/19 09:25:34;;;;;;;16.80;9.27;;;;;;;;;;5082559;28;20485;-79
2022/12/19 09:28:02;;;;;;;12.73;8.00;;;;;;;;;;5085391;28;20511;-79
2022/12/19 09:30:31;;;;;;;16.00;9.50;;;;;;;;;;5073624;28;20485;-77
2022/12/19 09:33:01;;;;;;;14.30;8.27;;;;;;;;;;5081333;28;20465;-78
2022/12/19 09:35:29;;;;;;;15.77;8.97;;;;;;;;;;5070614;28;20480;-77
2022/12/19 09:37:58;;;;;;;12.43;7.63;;;;;;;;;;5080629;28;20528;-79
2022/12/19 09:40:35;;;;;;;9.83;6.47;;;;;;;;;;5074045;28;20539;-76
2022/12/19 09:43:13;;;;;;;26.77;12.33;;;;;;;;;;5070003;28;20461;-79
2022/12/19 09:45:49;;;;;;;13.97;7.83;;;;;;;;;;5067419;28;20978;-80
2022/12/19 09:48:20;;;;;;;12.67;7.00;;;;;;;;;;5064309;28;20464;-78
2022/12/19 09:50:52;;;;;;;15.87;8.67;;;;;;;;;;5079549;28;20472;-78
2022/12/19 09:53:26;;;;;;;15.57;8.33;;;;;;;;;;5081773;28;20499;-78
2022/12/19 09:55:58;;;;;;;15.00;9.00;;;;;;;;;;5077967;28;20470;-77
2022/12/19 09:58:44;;;;;;;17.03;8.73;;;;;;;;;;5072879;28;20456;-78
2022/12/19 10:01:17;;;;;;;10.43;7.70;;;;;;;;;;5080151;28;20460;-77
2022/12/19 10:03:49;;;;;;;15.17;8.30;;;;;;;;;;5069654;28;20486;-78
2022/12/19 10:06:18;;;;;;;18.23;9.60;;;;;;;;;;5068193;28;20903;-78
2022/12/19 10:08:46;;;;;;;16.83;10.33;;;;;;;;;;5064168;28;20465;-78
2022/12/19 10:11:25;;;;;;;14.63;9.73;;;;;;;;;;5069806;28;20496;-79
2022/12/19 10:14:01;;;;;;;11.33;7.40;;;;;;;;;;5070630;28;20464;-78
2022/12/19 10:16:32;;;;;;;16.20;9.17;;;;;;;;;;5075783;28;20473;-78
2022/12/19 10:19:02;;;;;;;15.00;7.83;;;;;;;;;;5085760;28;20460;-79
2022/12/19 10:21:34;;;;;;;14.27;7.70;;;;;;;;;;5086097;28;20461;-79
2022/12/19 10:24:26;;;;;;;17.63;10.53;;;;;;;;;;5076719;28;20448;-79
2022/12/19 10:26:55;;;;;;;12.83;6.87;;;;;;;;;;5076854;28;20526;-78
2022/12/19 10:29:45;;;;;;;14.20;9.00;;;;;;;;;;5081658;28;20453;-80
2022/12/19 10:32:17;;;;;;;17.60;9.30;;;;;;;;;;5080156;28;20484;-81
2022/12/19 10:34:50;;;;;;;16.70;8.50;;;;;;;;;;5072580;28;20461;-80
2022/12/19 10:40:44;;;;;;;15.70;9.53;;;;;;;;;;5152185;27;20351;-71
2022/12/19 10:43:14;;;;;;;15.13;8.83;;;;;;;;;;5129755;27;20534;-70
2022/12/19 10:45:52;;;;;;;16.23;8.80;;;;;;;;;;5127581;27;20470;-71
2022/12/19 10:48:22;;;;;;;12.63;8.07;;;;;;;;;;5132743;27;20557;-69
2022/12/19 10:51:02;;;;;;;11.33;8.07;;;;;;;;;;5126054;27;21125;-70
2022/12/19 10:53:30;;;;;;;12.93;7.70;;;;;;;;;;5126182;27;20515;-70
2022/12/19 10:56:01;;;;;;;20.90;10.87;;;;;;;;;;5126666;27;20576;-71
2022/12/19 10:58:37;;;;;;;16.40;9.03;;;;;;;;;;5128349;27;20478;-70
2022/12/19 11:01:06;;;;;;;21.00;10.30;;;;;;;;;;5130123;27;20453;-71
2022/12/19 11:03:34;;;;;;;17.97;9.00;;;;;;;;;;5130651;27;20803;-71
2022/12/19 11:06:19;;;;;;;13.90;9.33;;;;;;;;;;5128682;27;20566;-70
2022/12/19 11:09:11;;;;;;;18.07;9.60;;;;;;;;;;5125251;27;20472;-71
2022/12/19 11:11:47;;;;;;;19.43;10.33;;;;;;;;;;5127806;27;20617;-70
2022/12/19 11:14:26;;;;;;;22.87;12.67;;;;;;;;;;5130675;27;20920;-70
2022/12/19 11:16:55;;;;;;;21.37;10.97;;;;;;;;;;5133790;27;20450;-70
2022/12/19 11:19:28;;;;;;;22.13;10.30;;;;;;;;;;5129182;27;20472;-70
2022/12/19 11:22:01;;;;;;;21.90;11.97;;;;;;;;;;5118134;27;20458;-70
2022/12/19 11:24:32;;;;;;;16.60;9.57;;;;;;;;;;5127405;27;20458;-69
2022/12/19 11:27:00;;;;;;;18.17;10.07;;;;;;;;;;5120896;27;20451;-69
2022/12/19 11:29:39;;;;;;;14.23;9.10;;;;;;;;;;5126056;27;20814;-69
2022/12/19 11:32:25;;;;;;;22.57;11.63;;;;;;;;;;5115456;27;20812;-71
2022/12/19 11:35:04;;;;;;;17.77;10.57;;;;;;;;;;5114407;27;20450;-73
2022/12/19 11:37:44;;;;;;;21.80;12.07;;;;;;;;;;5112114;27;20557;-69
2022/12/19 11:40:35;;;;;;;16.30;9.93;;;;;;;;;;5130359;27;20485;-70
2022/12/19 11:43:07;;;;;;;16.77;10.90;;;;;;;;;;5117472;27;20462;-71
2022/12/19 11:45:48;;;;;;;20.07;11.50;;;;;;;;;;5118069;27;20493;-71
2022/12/19 11:48:18;;;;;;;20.47;12.83;;;;;;;;;;5131016;27;20487;-71
2022/12/19 11:51:04;;;;;;;14.00;9.00;;;;;;;;;;5120241;27;20499;-70
2022/12/19 11:53:37;;;;;;;17.13;9.97;;;;;;;;;;5108375;28;20463;-69
2022/12/19 11:56:14;;;;;;;20.87;10.87;;;;;;;;;;5097991;28;20911;-70
2022/12/19 11:59:01;;;;;;;17.33;11.30;;;;;;;;;;5105453;27;20488;-70
2022/12/19 12:01:41;;;;;;;15.30;8.17;;;;;;;;;;5100716;27;20534;-70
2022/12/19 12:04:36;;;;;;;18.60;10.23;;;;;;;;;;5107043;27;20463;-69
2022/12/19 12:07:06;;;;;;;22.43;12.33;;;;;;;;;;5113153;27;20491;-71
2022/12/19 12:09:45;;;;;;;14.83;9.83;;;;;;;;;;5112854;28;20458;-69
2022/12/19 12:12:42;;;;;;;21.37;10.50;;;;;;;;;;5113334;28;21048;-72
2022/12/19 12:15:36;;;;;;;17.63;9.83;;;;;;;;;;5097696;28;20491;-69
2022/12/19 12:18:09;;;;;;;19.90;9.90;;;;;;;;;;5097892;28;20471;-70
2022/12/19 12:20:39;;;;;;;17.77;8.97;;;;;;;;;;5097765;28;20447;-69
2022/12/19 12:23:19;;;;;;;14.07;8.77;;;;;;;;;;5114113;27;20473;-70
2022/12/19 12:25:54;;;;;;;16.53;10.47;;;;;;;;;;5114852;27;20450;-70
2022/12/19 12:28:43;;;;;;;16.80;7.20;;;;;;;;;;5105266;27;20459;-70
2022/12/19 12:31:16;;;;;;;13.53;8.87;;;;;;;;;;5111568;27;20542;-70
2022/12/19 12:33:54;;;;;;;14.30;8.40;;;;;;;;;;5118488;27;20462;-71
2022/12/19 12:36:28;;;;;;;18.57;9.27;;;;;;;;;;5117781;27;20515;-70
2022/12/19 12:39:02;;;;;;;12.83;8.90;;;;;;;;;;5103123;28;20499;-71
2022/12/19 12:42:05;;;;;;;16.90;8.00;;;;;;;;;;5109718;27;20525;-70
2022/12/19 12:44:35;;;;;;;16.57;8.90;;;;;;;;;;5113566;27;20474;-70
2022/12/19 12:47:13;;;;;;;15.10;8.77;;;;;;;;;;5101078;28;20451;-70
2022/12/19 12:49:44;;;;;;;14.23;8.40;;;;;;;;;;5107677;28;20454;-69
2022/12/19 12:52:32;;;;;;;12.47;9.30;;;;;;;;;;5116223;27;20447;-70
2022/12/19 12:55:17;;;;;;;19.80;10.30;;;;;;;;;;5102780;27;21023;-69
2022/12/19 12:57:49;;;;;;;13.67;8.07;;;;;;;;;;5103925;28;20459;-71
2022/12/19 13:03:41;;;;;;;12.60;8.30;;;;;;;;;;5104455;28;20466;-70
2022/12/19 13:06:22;;;;;;;10.87;7.37;;;;;;;;;;5110465;28;20463;-71
2022/12/19 13:09:06;;;;;;;16.17;9.03;;;;;;;;;;5107941;28;20471;-70
2022/12/19 13:18:10;;;;;;;15.77;9.10;;;;;;;;;;5082622;28;20531;-71
2022/12/19 13:20:54;;;;;;;18.63;11.47;;;;;;;;;;5103801;27;21041;-70
2022/12/19 13:23:25;;;;;;;12.53;9.80;;;;;;;;;;5115135;28;20447;-70
2022/12/19 13:26:06;;;;;;;11.77;7.30;;;;;;;;;;5114399;27;20454;-71
2022/12/19 13:28:56;;;;;;;13.67;8.17;;;;;;;;;;5112259;28;20533;-70
2022/12/19 13:31:27;;;;;;;12.27;8.30;;;;;;;;;;5113111;28;20789;-70
2022/12/19 13:34:11;;;;;;;13.43;8.43;;;;;;;;;;5110559;27;20453;-70
2022/12/19 13:37:07;;;;;;;15.17;8.53;;;;;;;;;;5115720;27;20437;-70
2022/12/19 13:39:49;;;;;;;14.27;9.53;;;;;;;;;;5107507;27;20487;-71
2022/12/19 13:45:31;;;;;;;17.17;9.50;;;;;;;;;;5096476;28;20282;-70
2022/12/19 13:48:10;;;;;;;15.33;8.50;;;;;;;;;;5081340;28;20474;-70
2022/12/19 13:50:39;;;;;;;12.90;8.77;;;;;;;;;;5096127;28;20539;-69
2022/12/19 13:56:06;;;;;;;16.20;9.03;;;;;;;;;;5087191;28;20502;-69
2022/12/19 13:58:48;;;;;;;16.13;10.17;;;;;;;;;;5092005;28;20456;-70
2022/12/19 14:01:47;;;;;;;12.40;8.00;;;;;;;;;;5094511;28;20487;-70
2022/12/19 14:04:25;;;;;;;13.90;8.20;;;;;;;;;;5089353;28;20456;-70
2022/12/19 14:07:01;;;;;;;16.20;8.90;;;;;;;;;;5087371;28;20464;-70
2022/12/19 14:09:31;;;;;;;22.90;11.13;;;;;;;;;;5090033;28;20440;-69
2022/12/19 14:12:01;;;;;;;14.77;9.40;;;;;;;;;;5088369;28;20456;-75
2022/12/19 14:17:15;;;;;;;13.10;8.07;;;;;;;;;;5091696;28;20497;-70
2022/12/19 14:22:33;;;;;;;17.80;9.37;;;;;;;;;;5089295;28;20447;-71
2022/12/19 14:25:02;;;;;;;15.23;10.00;;;;;;;;;;5093489;28;20444;-70
2022/12/19 14:27:40;;;;;;;18.40;10.37;;;;;;;;;;5094362;28;20487;-69
2022/12/19 14:30:24;;;;;;;15.93;10.50;;;;;;;;;;5094714;28;20880;-70
2022/12/19 14:33:03;;;;;;;13.97;8.73;;;;;;;;;;5089948;28;20774;-70
2022/12/19 14:38:43;;;;;;;14.70;8.10;;;;;;;;;;5069085;28;20539;-70
2022/12/19 14:43:37;;;;;;;19.33;10.70;;;;;;;;;;5093597;28;20440;-70
2022/12/19 14:44:21;;;;;;;16.03;9.97;;;;;;;;;;5091308;28;20520;-70
2022/12/19 14:47:00;;;;;;;22.93;11.47;;;;;;;;;;5074932;28;20448;-71
2022/12/19 14:49:34;;;;;;;16.93;10.43;;;;;;;;;;5075019;28;21073;-70
2022/12/19 14:52:05;;;;;;;16.67;10.20;;;;;;;;;;5087947;28;20451;-71
2022/12/19 14:54:33;;;;;;;18.83;12.20;;;;;;;;;;5092762;28;20451;-71
2022/12/19 14:57:01;;;;;;;14.27;10.07;;;;;;;;;;5093805;28;20431;-71
2022/12/19 14:59:34;;;;;;;20.67;12.73;;;;;;;;;;5088886;28;20491;-71
2022/12/19 15:02:08;;;;;;;18.47;10.97;;;;;;;;;;5093195;28;20448;-71
2022/12/19 15:04:39;;;;;;;20.73;12.53;;;;;;;;;;5092149;28;20444;-72
2022/12/19 15:07:14;;;;;;;20.63;9.50;;;;;;;;;;5093787;28;21015;-71
2022/12/19 15:09:51;;;;;;;24.97;13.30;;;;;;;;;;5092015;28;20478;-71
2022/12/19 15:15:26;;;;;;;20.40;10.37;;;;;;;;;;5090483;28;21094;-71
2022/12/19 15:17:56;;;;;;;20.37;9.20;;;;;;;;;;5092572;28;20440;-71
2022/12/19 15:20:32;;;;;;;33.73;13.37;;;;;;;;;;5093002;28;20487;-70
2022/12/19 15:23:00;;;;;;;21.33;12.33;;;;;;;;;;5092110;28;20446;-70
2022/12/19 15:25:37;;;;;;;20.77;11.90;;;;;;;;;;5092054;28;20445;-70
2022/12/19 15:28:19;;;;;;;19.13;11.43;;;;;;;;;;5077366;28;20452;-71
2022/12/19 15:30:49;;;;;;;20.57;12.90;;;;;;;;;;5076827;28;20509;-71
2022/12/19 15:33:20;;;;;;;18.27;11.47;;;;;;;;;;5085874;28;20453;-70